createdAt,value
2023-01-09T00:01:27.598Z,6.20
2023-01-09T00:03:55.015Z,7.00
2023-01-09T00:06:22.611Z,5.90
2023-01-09T00:08:50.119Z,7.80
2023-01-09T00:11:17.669Z,6.50
2023-01-09T00:13:45.304Z,6.90
2023-01-09T00:16:13.480Z,7.40
2023-01-09T00:18:41.014Z,7.20
2023-01-09T00:21:11.059Z,7.30
2023-01-09T00:23:38.546Z,8.00
2023-01-09T00:26:12.444Z,6.80
2023-01-09T00:28:40.652Z,6.20
2023-01-09T00:31:09.245Z,6.10
2023-01-09T00:33:42.467Z,5.10
2023-01-09T00:36:11.041Z,8.10
2023-01-09T00:38:38.856Z,7.00
2023-01-09T00:41:09.135Z,7.80
2023-01-09T00:43:45.504Z,8.20
2023-01-09T00:46:14.021Z,7.80
2023-01-09T00:48:44.287Z,7.80
2023-01-09T00:51:11.868Z,11.40
2023-01-09T00:53:42.704Z,11.50
2023-01-09T00:56:15.620Z,7.00
2023-01-09T00:58:43.382Z,9.20
2023-01-09T01:01:12.221Z,6.10
2023-01-09T01:03:40.477Z,9.90
2023-01-09T01:06:26.624Z,9.90
2023-01-09T01:08:55.902Z,8.70
2023-01-09T01:11:23.588Z,5.40
2023-01-09T01:13:51.572Z,9.50
2023-01-09T01:16:19.356Z,14.30
2023-01-09T01:18:46.905Z,8.60
2023-01-09T01:21:14.933Z,8.30
2023-01-09T01:23:43.501Z,8.60
2023-01-09T01:26:15.754Z,9.30
2023-01-09T01:28:43.461Z,12.40
2023-01-09T01:31:18.327Z,11.90
2023-01-09T01:33:46.043Z,10.20
2023-01-09T01:36:16.165Z,10.70
2023-01-09T01:38:43.989Z,7.60
2023-01-09T01:41:11.338Z,9.20
2023-01-09T01:43:56.060Z,11.70
2023-01-09T01:46:24.873Z,10.80
2023-01-09T01:48:59.476Z,8.40
2023-01-09T01:51:30.375Z,14.50
2023-01-09T01:54:02.828Z,9.30
2023-01-09T01:56:40.802Z,8.40
2023-01-09T01:59:16.751Z,13.10
2023-01-09T02:01:49.516Z,8.50
2023-01-09T02:04:16.967Z,14.70
2023-01-09T02:06:47.429Z,14.50
2023-01-09T02:09:17.940Z,12.40
2023-01-09T02:11:46.783Z,10.80
2023-01-09T02:14:16.462Z,12.00
2023-01-09T02:17:11.224Z,9.90
2023-01-09T02:20:23.628Z,13.60
2023-01-09T02:23:40.013Z,12.40
2023-01-09T02:26:47.553Z,11.40
2023-01-09T02:29:53.709Z,13.30
2023-01-09T02:32:49.321Z,11.80
2023-01-09T02:35:23.201Z,9.20
2023-01-09T02:38:26.012Z,13.60
2023-01-09T02:41:35.897Z,12.20
2023-01-09T02:44:24.944Z,10.50
2023-01-09T02:47:29.329Z,11.60
2023-01-09T02:50:09.257Z,11.90
2023-01-09T02:53:02.697Z,8.70
2023-01-09T02:55:55.372Z,15.50
2023-01-09T02:58:56.572Z,10.80
2023-01-09T03:01:57.768Z,16.70
2023-01-09T03:04:25.180Z,11.80
2023-01-09T03:07:14.461Z,10.00
2023-01-09T03:09:44.027Z,11.80
2023-01-09T03:12:18.401Z,11.20
2023-01-09T03:14:51.838Z,11.90
2023-01-09T03:17:28.988Z,10.00
2023-01-09T03:19:58.091Z,10.40
2023-01-09T03:22:25.438Z,11.60
2023-01-09T03:24:52.815Z,14.00
2023-01-09T03:27:20.813Z,9.20
2023-01-09T03:29:48.123Z,12.20
2023-01-09T03:32:15.575Z,10.30
2023-01-09T03:34:42.911Z,8.00
2023-01-09T03:37:10.311Z,11.60
2023-01-09T03:39:37.789Z,5.70
2023-01-09T03:42:05.374Z,11.10
2023-01-09T03:44:32.778Z,11.10
2023-01-09T03:47:00.419Z,12.10
2023-01-09T03:49:27.774Z,15.10
2023-01-09T03:51:55.105Z,12.00
2023-01-09T03:54:22.533Z,7.80
2023-01-09T03:56:50.379Z,6.20
2023-01-09T03:59:17.734Z,12.40
2023-01-09T04:01:45.218Z,9.40
2023-01-09T04:04:12.728Z,14.60
2023-01-09T04:06:40.142Z,9.50
2023-01-09T04:09:07.586Z,8.70
2023-01-09T04:11:34.942Z,8.60
2023-01-09T04:14:02.372Z,6.90
2023-01-09T04:16:29.804Z,9.20
2023-01-09T04:18:57.307Z,12.60
2023-01-09T04:21:24.732Z,10.90
2023-01-09T04:23:52.092Z,19.00
2023-01-09T04:26:19.656Z,15.30
2023-01-09T04:28:48.044Z,9.90
2023-01-09T04:31:15.438Z,10.00
2023-01-09T04:33:42.805Z,10.50
2023-01-09T04:36:10.726Z,10.80
2023-01-09T04:38:38.204Z,11.70
2023-01-09T04:41:05.905Z,11.90
2023-01-09T04:43:33.291Z,9.70
2023-01-09T04:46:00.775Z,13.80
2023-01-09T04:48:28.296Z,14.00
2023-01-09T04:50:55.661Z,9.60
2023-01-09T04:53:23.023Z,8.90
2023-01-09T04:55:50.344Z,9.10
2023-01-09T04:58:17.732Z,8.20
2023-01-09T05:00:45.143Z,9.60
2023-01-09T05:03:12.606Z,12.20
2023-01-09T05:05:40.115Z,10.70
2023-01-09T05:08:07.512Z,7.90
2023-01-09T05:10:34.906Z,8.40
2023-01-09T05:13:02.363Z,10.50
2023-01-09T05:15:31.056Z,9.30
2023-01-09T05:17:58.410Z,9.30
2023-01-09T05:20:25.883Z,9.00
2023-01-09T05:22:53.212Z,13.20
2023-01-09T05:25:20.560Z,14.70
2023-01-09T05:27:47.934Z,13.30
2023-01-09T05:30:18.017Z,10.60
2023-01-09T05:32:45.843Z,9.70
2023-01-09T05:35:13.205Z,9.10
2023-01-09T05:37:40.540Z,15.10
2023-01-09T05:40:10.559Z,10.80
2023-01-09T05:42:38.000Z,9.90
2023-01-09T05:45:07.190Z,8.50
2023-01-09T05:47:34.517Z,10.30
2023-01-09T05:50:02.211Z,11.50
2023-01-09T05:52:29.810Z,9.30
2023-01-09T05:54:57.181Z,7.50
2023-01-09T05:57:24.717Z,7.80
2023-01-09T05:59:52.146Z,9.60
2023-01-09T06:02:19.586Z,14.50
2023-01-09T06:04:47.028Z,9.00
2023-01-09T06:07:18.898Z,6.90
2023-01-09T06:09:47.840Z,5.40
2023-01-09T06:12:15.305Z,7.80
2023-01-09T06:14:42.692Z,11.40
2023-01-09T06:17:11.051Z,9.60
2023-01-09T06:19:38.420Z,9.20
2023-01-09T06:22:05.787Z,6.60
2023-01-09T06:24:33.097Z,5.80
2023-01-09T06:27:00.583Z,6.60
2023-01-09T06:29:28.072Z,6.50
2023-01-09T06:31:55.370Z,7.00
2023-01-09T06:34:22.954Z,5.60
2023-01-09T06:36:50.363Z,4.70
2023-01-09T06:39:17.894Z,8.20
2023-01-09T06:41:47.118Z,5.10
2023-01-09T06:44:16.027Z,11.50
2023-01-09T06:46:43.405Z,7.90
2023-01-09T06:49:11.024Z,9.80
2023-01-09T06:51:38.407Z,5.80
2023-01-09T06:54:05.940Z,5.20
2023-01-09T06:56:33.407Z,7.30
2023-01-09T06:59:01.992Z,4.70
2023-01-09T07:01:29.414Z,10.40
2023-01-09T07:03:56.842Z,4.70
2023-01-09T07:06:24.316Z,5.50
2023-01-09T07:08:51.701Z,6.50
2023-01-09T07:11:19.182Z,5.30
2023-01-09T07:13:46.509Z,6.10
2023-01-09T07:16:13.974Z,5.10
2023-01-09T07:18:41.392Z,7.70
2023-01-09T07:21:08.873Z,4.60
2023-01-09T07:23:36.360Z,4.70
2023-01-09T07:26:03.851Z,6.10
2023-01-09T07:28:31.332Z,6.20
2023-01-09T07:31:02.566Z,7.50
2023-01-09T07:33:30.436Z,5.80
2023-01-09T07:35:57.832Z,5.30
2023-01-09T07:38:25.914Z,7.20
2023-01-09T07:40:53.372Z,4.60
2023-01-09T07:43:20.797Z,4.80
2023-01-09T07:45:48.158Z,4.20
2023-01-09T07:48:15.627Z,5.00
2023-01-09T07:50:42.985Z,6.40
2023-01-09T07:53:10.334Z,3.80
2023-01-09T07:55:37.860Z,5.70
2023-01-09T07:58:05.270Z,8.30
2023-01-09T08:00:33.291Z,8.10
2023-01-09T08:03:00.773Z,7.80
2023-01-09T08:05:28.151Z,4.70
2023-01-09T08:07:55.554Z,5.20
2023-01-09T08:10:23.127Z,5.00
2023-01-09T08:12:50.799Z,7.30
2023-01-09T08:15:18.981Z,6.50
2023-01-09T08:17:47.172Z,4.80
2023-01-09T08:20:16.843Z,3.50
2023-01-09T08:22:50.562Z,5.90
2023-01-09T08:25:18.461Z,2.90
2023-01-09T08:27:46.339Z,3.40
2023-01-09T08:30:14.994Z,5.50
2023-01-09T08:32:42.632Z,5.50
2023-01-09T08:35:10.545Z,5.30
2023-01-09T08:37:37.929Z,5.50
2023-01-09T08:40:05.942Z,3.90
2023-01-09T08:42:51.848Z,5.30
2023-01-09T08:45:38.005Z,5.10
2023-01-09T08:48:05.770Z,7.40
2023-01-09T08:50:33.331Z,6.20
2023-01-09T08:53:00.753Z,4.10
2023-01-09T08:55:28.135Z,5.40
2023-01-09T08:57:55.652Z,5.60
2023-01-09T09:00:24.783Z,4.70
2023-01-09T09:02:54.299Z,4.80
2023-01-09T09:05:24.017Z,5.00
2023-01-09T09:07:54.908Z,4.20
2023-01-09T09:10:25.269Z,5.20
2023-01-09T09:12:56.559Z,5.00
2023-01-09T09:15:26.473Z,4.00
2023-01-09T09:17:56.360Z,5.30
2023-01-09T09:20:33.999Z,3.80
2023-01-09T09:23:01.708Z,4.40
2023-01-09T09:25:29.866Z,5.20
2023-01-09T09:27:57.473Z,6.80
2023-01-09T09:30:25.258Z,3.40
2023-01-09T09:32:52.659Z,3.50
2023-01-09T09:35:21.188Z,5.30
2023-01-09T09:37:55.392Z,3.10
2023-01-09T09:40:45.456Z,4.50
2023-01-09T09:44:00.899Z,5.20
2023-01-09T09:47:00.643Z,3.30
2023-01-09T09:49:41.196Z,7.90
2023-01-09T09:52:26.284Z,4.70
2023-01-09T09:54:54.168Z,3.90
2023-01-09T09:57:29.645Z,6.20
2023-01-09T09:59:57.595Z,4.20
2023-01-09T10:02:30.560Z,5.60
2023-01-09T10:05:11.243Z,3.90
2023-01-09T10:07:48.670Z,4.80
2023-01-09T10:10:33.885Z,2.70
2023-01-09T10:13:24.475Z,4.70
2023-01-09T10:16:14.372Z,7.10
2023-01-09T10:19:04.125Z,5.60
2023-01-09T10:21:43.602Z,3.70
2023-01-09T10:25:13.961Z,5.50
2023-01-09T10:28:07.028Z,4.60
2023-01-09T10:30:49.035Z,5.30
2023-01-09T10:33:42.730Z,7.60
2023-01-09T10:36:47.629Z,6.10
2023-01-09T10:39:25.242Z,5.60
2023-01-09T10:42:04.189Z,5.30
2023-01-09T10:44:40.225Z,5.10
2023-01-09T10:47:34.384Z,5.90
2023-01-09T10:50:18.499Z,4.50
2023-01-09T10:52:46.986Z,6.80
2023-01-09T10:55:23.235Z,6.30
2023-01-09T10:57:57.637Z,4.40
2023-01-09T11:00:25.677Z,5.40
2023-01-09T11:02:54.898Z,5.90
2023-01-09T11:05:27.885Z,4.40
2023-01-09T11:08:14.007Z,5.70
2023-01-09T11:10:52.297Z,5.50
2023-01-09T11:13:27.237Z,5.40
2023-01-09T11:16:14.797Z,5.10
2023-01-09T11:18:52.147Z,4.20
2023-01-09T11:21:36.187Z,4.90
2023-01-09T11:24:18.920Z,5.80
2023-01-09T11:26:48.357Z,6.70
2023-01-09T11:29:19.400Z,2.40
2023-01-09T11:32:01.713Z,5.00
2023-01-09T11:34:33.216Z,6.70
2023-01-09T11:39:41.812Z,6.00
2023-01-09T11:42:45.250Z,4.10
2023-01-09T11:45:27.518Z,4.20
2023-01-09T11:47:54.958Z,4.80
2023-01-09T11:50:26.233Z,5.50
2023-01-09T11:53:18.538Z,4.50
2023-01-09T11:55:53.283Z,4.20
2023-01-09T11:58:21.983Z,8.00
2023-01-09T12:01:18.227Z,4.10
2023-01-09T12:04:11.149Z,6.00
2023-01-09T12:07:27.973Z,6.80
2023-01-09T12:10:01.158Z,4.90
2023-01-09T12:12:55.910Z,5.10
2023-01-09T12:15:43.174Z,4.40
2023-01-09T12:18:48.317Z,3.80
2023-01-09T12:21:36.263Z,6.20
2023-01-09T12:24:29.586Z,4.70
2023-01-09T12:27:40.505Z,7.20
2023-01-09T12:30:45.601Z,6.60
2023-01-09T12:33:27.515Z,8.80
2023-01-09T12:36:22.883Z,6.00
2023-01-09T12:39:45.308Z,5.60
2023-01-09T12:42:54.425Z,6.50
2023-01-09T12:45:52.339Z,4.30
2023-01-09T12:48:37.929Z,7.70
2023-01-09T12:51:47.256Z,9.20
2023-01-09T12:54:40.158Z,7.80
2023-01-09T12:57:37.523Z,5.50
2023-01-09T13:00:23.802Z,7.50
2023-01-09T13:03:12.514Z,4.30
2023-01-09T13:05:47.512Z,6.80
2023-01-09T13:08:39.715Z,8.00
2023-01-09T13:11:27.385Z,5.90
2023-01-09T13:14:21.698Z,5.10
2023-01-09T13:16:53.386Z,4.60
2023-01-09T13:19:31.701Z,6.50
2023-01-09T13:21:59.683Z,3.10
2023-01-09T13:25:00.691Z,3.60
2023-01-09T13:27:35.295Z,5.80
2023-01-09T13:30:19.466Z,3.50
2023-01-09T13:33:22.035Z,4.10
2023-01-09T13:35:55.750Z,2.70
2023-01-09T13:38:28.884Z,6.10
2023-01-09T13:41:32.619Z,6.40
2023-01-09T13:44:07.849Z,4.70
2023-01-09T13:46:44.699Z,5.80
2023-01-09T13:49:41.067Z,4.30
2023-01-09T13:52:33.427Z,5.10
2023-01-09T13:55:04.058Z,5.10
2023-01-09T13:58:02.196Z,5.00
2023-01-09T14:00:29.428Z,6.40
2023-01-09T14:02:58.255Z,8.40
2023-01-09T14:05:25.643Z,3.00
2023-01-09T14:08:04.961Z,2.80
2023-01-09T14:10:39.629Z,4.30
2023-01-09T14:13:14.691Z,6.10
2023-01-09T14:15:47.671Z,4.30
2023-01-09T14:18:19.201Z,5.30
2023-01-09T14:20:59.405Z,4.10
2023-01-09T14:23:50.469Z,4.20
2023-01-09T14:26:23.924Z,3.80
2023-01-09T14:28:51.833Z,4.30
2023-01-09T14:31:31.965Z,7.20
2023-01-09T14:34:32.164Z,4.70
2023-01-09T14:37:02.403Z,3.10
2023-01-09T14:39:32.452Z,4.10
2023-01-09T14:42:09.112Z,6.30
2023-01-09T14:45:02.466Z,6.10
2023-01-09T14:47:40.382Z,6.70
2023-01-09T14:50:22.209Z,6.80
2023-01-09T14:52:55.695Z,5.90
2023-01-09T14:55:31.767Z,5.90
2023-01-09T14:58:29.083Z,7.10
2023-01-09T15:01:19.074Z,3.90
2023-01-09T15:03:53.942Z,3.70
2023-01-09T15:06:25.997Z,7.40
2023-01-09T15:09:04.427Z,3.60
2023-01-09T15:11:33.424Z,6.40
2023-01-09T15:14:04.372Z,5.40
2023-01-09T15:16:33.046Z,3.30
2023-01-09T15:19:04.694Z,7.80
2023-01-09T15:21:32.609Z,5.70
2023-01-09T15:24:21.563Z,7.90
2023-01-09T15:26:55.148Z,3.20
2023-01-09T15:29:22.957Z,4.10
2023-01-09T15:32:04.616Z,4.80
2023-01-09T15:34:33.054Z,4.20
2023-01-09T15:37:02.953Z,6.90
2023-01-09T15:39:38.612Z,4.30
2023-01-09T15:42:41.033Z,4.40
2023-01-09T15:45:23.595Z,3.50
2023-01-09T15:47:51.528Z,4.90
2023-01-09T15:50:28.902Z,4.00
2023-01-09T15:52:57.069Z,4.40
2023-01-09T15:55:35.377Z,6.10
2023-01-09T15:58:05.399Z,8.50
2023-01-09T16:00:41.890Z,5.40
2023-01-09T16:03:20.096Z,7.10
2023-01-09T16:05:55.271Z,5.90
2023-01-09T16:08:29.737Z,8.00
2023-01-09T16:11:05.423Z,5.70
2023-01-09T16:13:39.484Z,5.20
2023-01-09T16:16:07.783Z,9.80
2023-01-09T16:18:38.858Z,8.00
2023-01-09T16:21:12.343Z,11.10
2023-01-09T16:23:55.946Z,10.10
2023-01-09T16:26:28.494Z,9.70
2023-01-09T16:28:56.903Z,9.40
2023-01-09T16:31:30.316Z,11.70
2023-01-09T16:34:06.572Z,8.60
2023-01-09T16:36:35.727Z,9.80
2023-01-09T16:39:06.596Z,7.70
2023-01-09T16:41:52.370Z,9.60
2023-01-09T16:44:19.725Z,6.80
2023-01-09T16:46:47.255Z,7.30
2023-01-09T16:49:22.792Z,9.50
2023-01-09T16:51:51.633Z,6.20
2023-01-09T16:54:20.012Z,10.30
2023-01-09T16:56:50.950Z,9.00
2023-01-09T16:59:21.587Z,6.70
2023-01-09T17:01:49.438Z,7.80
2023-01-09T17:04:17.763Z,10.10
2023-01-09T17:06:45.166Z,7.20
2023-01-09T17:09:15.743Z,11.70
2023-01-09T17:11:43.402Z,6.00
2023-01-09T17:14:12.980Z,7.20
2023-01-09T17:16:46.790Z,6.60
2023-01-09T17:19:18.852Z,5.80
2023-01-09T17:21:46.864Z,10.00
2023-01-09T17:24:33.571Z,6.80
2023-01-09T17:27:20.531Z,6.50
2023-01-09T17:29:48.391Z,7.40
2023-01-09T17:32:18.105Z,7.40
2023-01-09T17:34:45.514Z,8.20
2023-01-09T17:37:19.386Z,6.00
2023-01-09T17:39:46.871Z,8.00
2023-01-09T17:42:14.283Z,9.10
2023-01-09T17:44:41.702Z,6.50
2023-01-09T17:47:15.357Z,7.40
2023-01-09T17:49:42.897Z,5.90
2023-01-09T17:52:10.354Z,6.90
2023-01-09T17:54:37.821Z,4.30
2023-01-09T17:57:05.817Z,7.40
2023-01-09T17:59:33.824Z,5.70
2023-01-09T18:02:01.262Z,6.00
2023-01-09T18:04:28.600Z,6.60
2023-01-09T18:06:55.934Z,8.40
2023-01-09T18:09:23.288Z,4.10
2023-01-09T18:11:50.705Z,6.80
2023-01-09T18:14:18.083Z,7.00
2023-01-09T18:16:45.630Z,8.50
2023-01-09T18:19:13.000Z,5.00
2023-01-09T18:21:40.371Z,6.40
2023-01-09T18:24:09.091Z,6.00
2023-01-09T18:26:36.535Z,9.00
2023-01-09T18:29:04.163Z,9.70
2023-01-09T18:31:32.029Z,7.30
2023-01-09T18:34:02.334Z,7.70
2023-01-09T18:36:30.400Z,12.00
2023-01-09T18:39:00.706Z,9.20
2023-01-09T18:41:28.358Z,11.60
2023-01-09T18:43:59.083Z,11.40
2023-01-09T18:46:30.847Z,9.90
2023-01-09T18:49:01.736Z,7.10
2023-01-09T18:51:29.752Z,9.80
2023-01-09T18:53:58.653Z,11.20
2023-01-09T18:56:26.345Z,7.50
2023-01-09T18:58:58.754Z,8.50
2023-01-09T19:01:28.619Z,11.00
2023-01-09T19:03:58.509Z,9.40
2023-01-09T19:06:27.888Z,7.40
2023-01-09T19:08:55.405Z,8.40
2023-01-09T19:11:22.988Z,12.00
2023-01-09T19:13:50.706Z,8.30
2023-01-09T19:16:19.029Z,8.10
2023-01-09T19:18:46.792Z,9.10
2023-01-09T19:21:16.769Z,14.60
2023-01-09T19:23:45.435Z,9.60
2023-01-09T19:26:20.661Z,10.40
2023-01-09T19:28:48.164Z,9.70
2023-01-09T19:31:16.687Z,10.80
2023-01-09T19:33:45.131Z,10.70
2023-01-09T19:36:12.687Z,10.50
2023-01-09T19:38:40.124Z,11.20
2023-01-09T19:41:14.483Z,14.20
2023-01-09T19:43:42.135Z,13.10
2023-01-09T19:46:13.558Z,11.10
2023-01-09T19:51:12.185Z,12.10
2023-01-09T19:53:40.200Z,16.60
2023-01-09T19:56:19.397Z,9.90
2023-01-09T19:58:53.519Z,12.10
2023-01-09T20:01:28.242Z,8.60
2023-01-09T20:03:57.370Z,11.00
2023-01-09T20:06:26.434Z,13.20
2023-01-09T20:08:57.409Z,12.70
2023-01-09T20:11:27.452Z,8.40
2023-01-09T20:13:57.653Z,7.00
2023-01-09T20:16:28.917Z,9.80
2023-01-09T20:21:28.106Z,7.20
2023-01-09T20:23:59.732Z,13.00
2023-01-09T20:26:29.068Z,9.10
2023-01-09T20:28:57.906Z,10.20
2023-01-09T20:31:28.305Z,12.70
2023-01-09T20:33:55.983Z,9.10
2023-01-09T20:36:27.603Z,9.70
2023-01-09T20:38:56.717Z,7.30
2023-01-09T20:41:25.888Z,7.20
2023-01-09T20:43:57.524Z,6.20
2023-01-09T20:46:28.741Z,14.50
2023-01-09T20:48:58.638Z,9.70
2023-01-09T20:51:26.383Z,10.90
2023-01-09T20:53:56.747Z,14.50
2023-01-09T20:56:29.880Z,10.80
2023-01-09T20:58:58.874Z,8.30
2023-01-09T21:01:28.056Z,11.80
2023-01-09T21:03:57.988Z,7.90
2023-01-09T21:06:26.338Z,8.50
2023-01-09T21:08:53.969Z,8.70
2023-01-09T21:11:22.818Z,8.90
2023-01-09T21:13:50.639Z,10.70
2023-01-09T21:16:24.419Z,10.30
2023-01-09T21:18:54.024Z,15.10
2023-01-09T21:21:24.868Z,9.30
2023-01-09T21:23:56.107Z,11.10
2023-01-09T21:26:27.646Z,10.30
2023-01-09T21:28:57.909Z,10.20
2023-01-09T21:31:34.491Z,12.30
2023-01-09T21:34:06.690Z,13.30
2023-01-09T21:36:35.530Z,7.90
2023-01-09T21:39:07.883Z,11.30
2023-01-09T21:41:54.826Z,10.50
2023-01-09T21:44:40.607Z,8.00
2023-01-09T21:47:08.073Z,9.80
2023-01-09T21:49:39.930Z,10.50
2023-01-09T21:52:07.643Z,9.00
2023-01-09T21:54:35.258Z,11.10
2023-01-09T21:57:04.071Z,10.30
2023-01-09T21:59:31.983Z,10.00
2023-01-09T22:01:59.603Z,10.30
2023-01-09T22:04:29.616Z,11.00
2023-01-09T22:06:57.054Z,12.50
2023-01-09T22:09:24.466Z,11.60
2023-01-09T22:11:51.938Z,12.40
2023-01-09T22:14:19.740Z,14.70
2023-01-09T22:16:48.252Z,13.20
2023-01-09T22:19:19.602Z,16.00
2023-01-09T22:21:48.186Z,11.70
2023-01-09T22:24:18.346Z,9.00
2023-01-09T22:26:46.138Z,10.80
2023-01-09T22:29:16.046Z,8.10
2023-01-09T22:31:43.573Z,12.70
2023-01-09T22:34:16.438Z,10.60
2023-01-09T22:36:45.087Z,11.30
2023-01-09T22:39:15.321Z,12.30
2023-01-09T22:41:43.029Z,9.30
2023-01-09T22:44:12.458Z,12.00
2023-01-09T22:46:39.950Z,9.20
2023-01-09T22:49:07.690Z,12.10
2023-01-09T22:51:35.072Z,13.60
2023-01-09T22:54:02.544Z,14.10
2023-01-09T22:56:32.200Z,14.50
2023-01-09T22:59:00.895Z,10.40
2023-01-09T23:01:28.602Z,15.80
2023-01-09T23:03:55.978Z,12.20
2023-01-09T23:06:25.294Z,13.20
2023-01-09T23:08:53.261Z,12.70
2023-01-09T23:11:44.866Z,13.70
2023-01-09T23:16:40.019Z,12.40
2023-01-09T23:19:14.432Z,12.30
2023-01-09T23:21:43.460Z,9.20
2023-01-09T23:24:12.139Z,11.50
2023-01-09T23:26:39.685Z,12.70
2023-01-09T23:29:07.841Z,11.50
2023-01-09T23:31:36.586Z,17.10
2023-01-09T23:34:05.342Z,12.80
2023-01-09T23:36:32.789Z,11.00
2023-01-09T23:39:00.385Z,8.50
2023-01-09T23:41:47.732Z,17.80
2023-01-09T23:44:15.252Z,16.10
2023-01-09T23:46:42.612Z,15.30
2023-01-09T23:49:10.418Z,12.60
2023-01-09T23:51:37.762Z,15.00
2023-01-09T23:54:05.381Z,11.70
2023-01-09T23:56:34.010Z,18.50
2023-01-09T23:59:02.629Z,12.60
